WZZ1EL LZKZ-EPKK
Flight info
| Callsign | WZZ1EL |
|---|---|
| Flight time | 0h 31m |
| Altitude | 16000 |
| Route | RAZEC N133 LENOV |
| Aircraft | A320/M-SDE3FGHIRWY/LB1 |
Departure
| Time | 2026-05-06 19:46 |
|---|---|
| Airport | Košice International Airport (LZKZ) |
Arrival
| Time | 2026-05-06 20:17 |
|---|---|
| Airport | Kraków John Paul II International Airport (EPKK) |
| Time | Latitude | Longitude | Altitude | Speed | Heading |
|---|---|---|---|---|---|
| 2026-05-06 19:26 | 48.67336 | 21.23845 | 766 ft | 0 kts | 224° |
| 2026-05-06 19:42 | 48.67335 | 21.23845 | 738 ft | 1 kts | 224° |
| 2026-05-06 19:42 | 48.67319 | 21.23841 | 766 ft | 5 kts | 180° |
| 2026-05-06 19:43 | 48.67309 | 21.23884 | 765 ft | 7 kts | 99° |
| 2026-05-06 19:43 | 48.67291 | 21.24011 | 762 ft | 17 kts | 103° |
| 2026-05-06 19:43 | 48.67259 | 21.24212 | 757 ft | 22 kts | 103° |
| 2026-05-06 19:43 | 48.67251 | 21.24413 | 756 ft | 13 kts | 47° |
| 2026-05-06 19:44 | 48.67324 | 21.24463 | 754 ft | 13 kts | 23° |
| 2026-05-06 19:44 | 48.67414 | 21.24502 | 757 ft | 14 kts | 13° |
| 2026-05-06 19:44 | 48.67517 | 21.24538 | 755 ft | 16 kts | 12° |
| 2026-05-06 19:44 | 48.67603 | 21.24600 | 757 ft | 8 kts | 50° |
| 2026-05-06 19:45 | 48.67640 | 21.24610 | 757 ft | 5 kts | 314° |
| 2026-05-06 19:45 | 48.67626 | 21.24585 | 757 ft | 7 kts | 213° |
| 2026-05-06 19:45 | 48.67566 | 21.24557 | 758 ft | 11 kts | 193° |
| 2026-05-06 19:45 | 48.67456 | 21.24518 | 757 ft | 36 kts | 194° |
| 2026-05-06 19:46 | 48.66970 | 21.24349 | 762 ft | 102 kts | 193° |
| 2026-05-06 19:46 | 48.66101 | 21.24047 | 760 ft | 151 kts | 192° |
| 2026-05-06 19:46 | 48.65039 | 21.23682 | 1143 ft | 161 kts | 194° |
| 2026-05-06 19:46 | 48.63923 | 21.23258 | 1664 ft | 169 kts | 195° |
| 2026-05-06 19:47 | 48.62770 | 21.22771 | 2249 ft | 174 kts | 199° |
| 2026-05-06 19:47 | 48.61566 | 21.22261 | 2702 ft | 187 kts | 197° |
| 2026-05-06 19:47 | 48.60239 | 21.21810 | 3155 ft | 200 kts | 195° |
| 2026-05-06 19:47 | 48.58873 | 21.21378 | 3904 ft | 201 kts | 195° |
| 2026-05-06 19:48 | 48.57502 | 21.20941 | 4670 ft | 202 kts | 195° |
| 2026-05-06 19:48 | 48.56206 | 21.20198 | 5392 ft | 199 kts | 220° |
| 2026-05-06 19:48 | 48.55433 | 21.18493 | 6072 ft | 205 kts | 253° |
| 2026-05-06 19:48 | 48.55485 | 21.16268 | 6583 ft | 224 kts | 278° |
| 2026-05-06 19:49 | 48.55878 | 21.13899 | 7033 ft | 243 kts | 285° |
| 2026-05-06 19:49 | 48.56842 | 21.11680 | 7545 ft | 268 kts | 315° |
| 2026-05-06 19:49 | 48.58564 | 21.10468 | 8131 ft | 290 kts | 347° |
| 2026-05-06 19:49 | 48.60627 | 21.10100 | 8849 ft | 299 kts | 351° |
| 2026-05-06 19:50 | 48.62716 | 21.09849 | 9656 ft | 303 kts | 352° |
| 2026-05-06 19:50 | 48.64828 | 21.09631 | 10352 ft | 309 kts | 352° |
| 2026-05-06 19:50 | 48.67027 | 21.09399 | 10723 ft | 325 kts | 353° |
| 2026-05-06 19:50 | 48.69344 | 21.09143 | 11076 ft | 342 kts | 353° |
| 2026-05-06 19:51 | 48.71742 | 21.08866 | 11380 ft | 358 kts | 353° |
| 2026-05-06 19:51 | 48.74288 | 21.08558 | 11647 ft | 375 kts | 353° |
| 2026-05-06 19:51 | 48.76934 | 21.08228 | 12009 ft | 386 kts | 352° |
| 2026-05-06 19:51 | 48.79629 | 21.07890 | 12606 ft | 391 kts | 352° |
| 2026-05-06 19:52 | 48.82348 | 21.07548 | 13207 ft | 394 kts | 353° |
| 2026-05-06 19:52 | 48.85095 | 21.07203 | 13786 ft | 398 kts | 353° |
| 2026-05-06 19:52 | 48.87872 | 21.06859 | 14328 ft | 402 kts | 353° |
| 2026-05-06 19:52 | 48.90677 | 21.06509 | 14856 ft | 405 kts | 353° |
| 2026-05-06 19:53 | 48.93495 | 21.06152 | 15420 ft | 407 kts | 353° |
| 2026-05-06 19:53 | 48.96322 | 21.05791 | 15784 ft | 409 kts | 352° |
| 2026-05-06 19:53 | 48.99168 | 21.05428 | 15881 ft | 417 kts | 352° |
| 2026-05-06 19:53 | 49.02122 | 21.05046 | 15892 ft | 435 kts | 352° |
| 2026-05-06 19:54 | 49.05179 | 21.04646 | 15884 ft | 444 kts | 352° |
| 2026-05-06 19:54 | 49.08261 | 21.04250 | 15888 ft | 444 kts | 353° |
| 2026-05-06 19:54 | 49.11347 | 21.03860 | 15887 ft | 444 kts | 352° |
| 2026-05-06 19:54 | 49.13380 | 21.03604 | 15883 ft | 444 kts | 353° |
| 2026-05-06 19:55 | 49.16468 | 21.03217 | 15878 ft | 444 kts | 353° |
| 2026-05-06 19:55 | 49.19552 | 21.02831 | 15881 ft | 444 kts | 353° |
| 2026-05-06 19:55 | 49.22629 | 21.02441 | 15878 ft | 443 kts | 353° |
| 2026-05-06 19:55 | 49.25630 | 21.02061 | 15873 ft | 423 kts | 353° |
| 2026-05-06 19:56 | 49.28498 | 21.01704 | 15858 ft | 404 kts | 353° |
| 2026-05-06 19:56 | 49.31299 | 21.01358 | 15107 ft | 405 kts | 353° |
| 2026-05-06 19:56 | 49.34130 | 21.00975 | 14181 ft | 412 kts | 350° |
| 2026-05-06 19:56 | 49.36894 | 20.99849 | 13225 ft | 412 kts | 333° |
| 2026-05-06 19:57 | 49.39319 | 20.97561 | 12443 ft | 406 kts | 319° |
| 2026-05-06 19:57 | 49.41544 | 20.94918 | 11779 ft | 402 kts | 319° |
| 2026-05-06 19:57 | 49.43744 | 20.92299 | 11094 ft | 398 kts | 320° |
| 2026-05-06 19:57 | 49.45893 | 20.89735 | 10423 ft | 394 kts | 320° |
| 2026-05-06 19:58 | 49.48048 | 20.87155 | 9992 ft | 393 kts | 320° |
| 2026-05-06 19:58 | 49.50194 | 20.84582 | 9837 ft | 386 kts | 320° |
| 2026-05-06 19:58 | 49.52253 | 20.82122 | 9846 ft | 361 kts | 319° |
| 2026-05-06 19:58 | 49.54178 | 20.79819 | 9854 ft | 340 kts | 319° |
| 2026-05-06 19:59 | 49.55999 | 20.77631 | 9857 ft | 323 kts | 319° |
| 2026-05-06 19:59 | 49.57722 | 20.75555 | 9850 ft | 306 kts | 319° |
| 2026-05-06 19:59 | 49.59360 | 20.73575 | 9854 ft | 293 kts | 318° |
| 2026-05-06 19:59 | 49.60968 | 20.71624 | 9850 ft | 295 kts | 318° |
| 2026-05-06 20:00 | 49.62581 | 20.69659 | 9840 ft | 295 kts | 318° |
| 2026-05-06 20:00 | 49.64199 | 20.67696 | 9849 ft | 295 kts | 318° |
| 2026-05-06 20:00 | 49.65817 | 20.65737 | 9849 ft | 296 kts | 318° |
| 2026-05-06 20:00 | 49.67434 | 20.63777 | 9841 ft | 296 kts | 318° |
| 2026-05-06 20:01 | 49.69053 | 20.61813 | 9846 ft | 296 kts | 318° |
| 2026-05-06 20:01 | 49.70673 | 20.59849 | 9831 ft | 296 kts | 318° |
| 2026-05-06 20:01 | 49.72296 | 20.57879 | 9846 ft | 297 kts | 318° |
| 2026-05-06 20:01 | 49.73917 | 20.55909 | 9845 ft | 297 kts | 318° |
| 2026-05-06 20:02 | 49.75544 | 20.53930 | 9835 ft | 297 kts | 318° |
| 2026-05-06 20:02 | 49.77168 | 20.51953 | 9844 ft | 297 kts | 318° |
| 2026-05-06 20:02 | 49.78770 | 20.50003 | 9834 ft | 297 kts | 318° |
| 2026-05-06 20:02 | 49.80391 | 20.48027 | 9836 ft | 297 kts | 317° |
| 2026-05-06 20:03 | 49.82012 | 20.46045 | 9835 ft | 297 kts | 317° |
| 2026-05-06 20:03 | 49.83641 | 20.44049 | 9836 ft | 297 kts | 317° |
| 2026-05-06 20:03 | 49.85262 | 20.42062 | 9834 ft | 298 kts | 317° |
| 2026-05-06 20:03 | 49.86887 | 20.40073 | 9729 ft | 297 kts | 317° |
| 2026-05-06 20:04 | 49.88505 | 20.38093 | 9384 ft | 295 kts | 317° |
| 2026-05-06 20:04 | 49.90113 | 20.36123 | 9009 ft | 294 kts | 317° |
| 2026-05-06 20:04 | 49.91718 | 20.34159 | 8654 ft | 293 kts | 317° |
| 2026-05-06 20:04 | 49.93314 | 20.32205 | 8301 ft | 292 kts | 317° |
| 2026-05-06 20:05 | 49.94907 | 20.30250 | 7952 ft | 290 kts | 317° |
| 2026-05-06 20:05 | 49.96488 | 20.28306 | 7602 ft | 289 kts | 317° |
| 2026-05-06 20:05 | 49.98061 | 20.26369 | 7255 ft | 288 kts | 317° |
| 2026-05-06 20:05 | 49.99624 | 20.24446 | 7024 ft | 287 kts | 316° |
| 2026-05-06 20:06 | 50.01188 | 20.22516 | 7013 ft | 288 kts | 316° |
| 2026-05-06 20:06 | 50.02920 | 20.20931 | 7015 ft | 295 kts | 339° |
| 2026-05-06 20:06 | 50.04981 | 20.20604 | 7016 ft | 303 kts | 6° |
| 2026-05-06 20:06 | 50.06950 | 20.21672 | 7019 ft | 296 kts | 34° |
| 2026-05-06 20:07 | 50.08350 | 20.23838 | 7022 ft | 276 kts | 63° |
| 2026-05-06 20:07 | 50.08968 | 20.26511 | 7022 ft | 253 kts | 83° |
| 2026-05-06 20:07 | 50.09270 | 20.29182 | 6987 ft | 253 kts | 86° |
| 2026-05-06 20:07 | 50.09533 | 20.31887 | 6839 ft | 252 kts | 84° |
| 2026-05-06 20:08 | 50.10207 | 20.34390 | 6561 ft | 254 kts | 52° |
| 2026-05-06 20:08 | 50.11563 | 20.36030 | 6294 ft | 249 kts | 18° |
| 2026-05-06 20:08 | 50.13221 | 20.36337 | 6162 ft | 229 kts | 342° |
| 2026-05-06 20:08 | 50.14542 | 20.35349 | 6024 ft | 203 kts | 308° |
| 2026-05-06 20:09 | 50.15289 | 20.33618 | 5719 ft | 187 kts | 279° |
| 2026-05-06 20:09 | 50.15412 | 20.31675 | 5363 ft | 177 kts | 254° |
| 2026-05-06 20:09 | 50.15130 | 20.29810 | 5051 ft | 177 kts | 251° |
| 2026-05-06 20:09 | 50.14841 | 20.27946 | 4758 ft | 177 kts | 251° |
| 2026-05-06 20:10 | 50.14560 | 20.26090 | 4503 ft | 175 kts | 251° |
| 2026-05-06 20:10 | 50.14282 | 20.24249 | 4209 ft | 174 kts | 252° |
| 2026-05-06 20:10 | 50.14002 | 20.22395 | 4036 ft | 177 kts | 251° |
| 2026-05-06 20:10 | 50.13719 | 20.20527 | 4015 ft | 173 kts | 251° |
| 2026-05-06 20:11 | 50.13453 | 20.18751 | 4018 ft | 167 kts | 251° |
| 2026-05-06 20:11 | 50.13186 | 20.16998 | 4022 ft | 166 kts | 252° |
| 2026-05-06 20:11 | 50.12933 | 20.15315 | 4067 ft | 156 kts | 251° |
| 2026-05-06 20:11 | 50.12683 | 20.13665 | 4031 ft | 156 kts | 251° |
| 2026-05-06 20:12 | 50.12428 | 20.12027 | 4027 ft | 156 kts | 250° |
| 2026-05-06 20:12 | 50.12180 | 20.10406 | 4028 ft | 156 kts | 251° |
| 2026-05-06 20:12 | 50.11941 | 20.08742 | 4029 ft | 155 kts | 252° |
| 2026-05-06 20:12 | 50.11715 | 20.07119 | 4026 ft | 156 kts | 252° |
| 2026-05-06 20:13 | 50.11487 | 20.05467 | 3943 ft | 155 kts | 252° |
| 2026-05-06 20:13 | 50.11262 | 20.03825 | 3787 ft | 155 kts | 252° |
| 2026-05-06 20:13 | 50.11037 | 20.02180 | 3602 ft | 156 kts | 252° |
| 2026-05-06 20:13 | 50.10811 | 20.00530 | 3407 ft | 156 kts | 252° |
| 2026-05-06 20:14 | 50.10586 | 19.98880 | 3207 ft | 155 kts | 252° |
| 2026-05-06 20:14 | 50.10361 | 19.97238 | 3012 ft | 155 kts | 253° |
| 2026-05-06 20:14 | 50.10133 | 19.95583 | 2800 ft | 157 kts | 253° |
| 2026-05-06 20:14 | 50.09907 | 19.93933 | 2604 ft | 150 kts | 253° |
| 2026-05-06 20:15 | 50.09688 | 19.92335 | 2410 ft | 149 kts | 253° |
| 2026-05-06 20:15 | 50.09471 | 19.90764 | 2208 ft | 152 kts | 253° |
| 2026-05-06 20:15 | 50.09249 | 19.89155 | 2008 ft | 151 kts | 253° |
| 2026-05-06 20:15 | 50.09026 | 19.87545 | 1807 ft | 153 kts | 255° |
| 2026-05-06 20:16 | 50.08802 | 19.85914 | 1594 ft | 156 kts | 256° |
| 2026-05-06 20:16 | 50.08568 | 19.84266 | 1388 ft | 156 kts | 258° |
| 2026-05-06 20:16 | 50.08338 | 19.82619 | 1165 ft | 156 kts | 259° |
| 2026-05-06 20:16 | 50.08121 | 19.80968 | 960 ft | 156 kts | 259° |
| 2026-05-06 20:17 | 50.07900 | 19.79339 | 791 ft | 145 kts | 257° |
| 2026-05-06 20:17 | 50.07736 | 19.78140 | 793 ft | 76 kts | 257° |
| 2026-05-06 20:17 | 50.07650 | 19.77498 | 797 ft | 56 kts | 259° |
| 2026-05-06 20:17 | 50.07566 | 19.76951 | 802 ft | 31 kts | 252° |
| 2026-05-06 20:18 | 50.07432 | 19.76864 | 800 ft | 23 kts | 168° |
| 2026-05-06 20:18 | 50.07294 | 19.76950 | 800 ft | 13 kts | 108° |
| 2026-05-06 20:18 | 50.07310 | 19.77044 | 799 ft | 9 kts | 72° |
| 2026-05-06 20:18 | 50.07328 | 19.77155 | 799 ft | 12 kts | 78° |
| 2026-05-06 20:19 | 50.07347 | 19.77296 | 798 ft | 15 kts | 75° |
| 2026-05-06 20:19 | 50.07418 | 19.77732 | 797 ft | 73 kts | 75° |
| 2026-05-06 20:19 | 50.07529 | 19.78514 | 794 ft | 73 kts | 76° |
| 2026-05-06 20:19 | 50.07621 | 19.79226 | 791 ft | 35 kts | 76° |
| 2026-05-06 20:20 | 50.07571 | 19.79384 | 791 ft | 10 kts | 188° |
| 2026-05-06 20:20 | 50.07545 | 19.79348 | 791 ft | 0 kts | 275° |
| 2026-05-06 20:20 | 50.07446 | 19.80419 | 789 ft | 0 kts | 168° |
| 2026-05-06 20:20 | 50.07488 | 19.80189 | 788 ft | 0 kts | 167° |